This is the latest recevied weather packets stored in our database for station/object WA4TPR. If no packets are shown the sender has not sent any weather packets the latest 10 day(s).
| Time | Temp. | Humidity | Pressure | Rain* | Wind** | Luminosity | Snow |
|---|---|---|---|---|---|---|---|
| 1777033386 | 21.11° C | 82% | 1018.5 hPa | 0 mm | - | 163 W/m² | - |
| 1777033085 | 20.56° C | 84% | 1018.4 hPa | 0 mm | - | 142 W/m² | - |
| 1777032780 | 20° C | 86% | 1018.4 hPa | 0 mm | - | 99 W/m² | - |
| 1777032477 | 20° C | 87% | 1018.4 hPa | 0 mm | - | 91 W/m² | - |
| 1777032176 | 19.44° C | 88% | 1018.5 hPa | 0 mm | - | 81 W/m² | - |
| 1777031872 | 19.44° C | 88% | 1018.3 hPa | 0 mm | - | 69 W/m² | - |
| 1777031566 | 18.89° C | 89% | 1018.4 hPa | 0 mm | - | 58 W/m² | - |
| 1777031266 | 18.89° C | 89% | 1018.1 hPa | 0 mm | - | 50 W/m² | - |
| 1777030963 | 18.89° C | 90% | 1018.2 hPa | 0 mm | - | 42 W/m² | - |
| 1777030658 | 18.89° C | 90% | 1018.2 hPa | 0 mm | - | 38 W/m² | - |
| 1777030353 | 18.33° C | 90% | 1018.2 hPa | 0 mm | - | 32 W/m² | - |
| 1777030050 | 18.33° C | 90% | 1017.9 hPa | 0 mm | - | 28 W/m² | - |
| 1777029746 | 18.33° C | 90% | 1017.9 hPa | 0 mm | - | 22 W/m² | - |
| 1777029444 | 17.78° C | 90% | 1018.1 hPa | 0 mm | - | 17 W/m² | - |
| 1777029141 | 17.78° C | 90% | 1018 hPa | 0 mm | - | 12 W/m² | - |
| 1777028836 | 17.78° C | 90% | 1017.9 hPa | 0 mm | - | 9 W/m² | - |
| 1777028529 | 18.33° C | 89% | 1017.9 hPa | 0 mm | - | 6 W/m² | - |
| 1777028224 | 18.33° C | 89% | 1017.9 hPa | 0 mm | - | 4 W/m² | - |
| 1777027921 | 18.33° C | 88% | 1017.8 hPa | 0 mm | - | 2 W/m² | - |
| 1777027616 | 18.89° C | 88% | 1017.7 hPa | 0 mm | - | 1 W/m² | - |
| 1777027312 | 18.89° C | 88% | 1017.6 hPa | 0 mm | - | 0 W/m² | - |
| 1777027009 | 18.89° C | 88% | 1017.6 hPa | 0 mm | - | 0 W/m² | - |
* Rain latest hour (hover to see other rain measurements)
** Current wind speed in m/s (hover to see current wind gust speed)